sensor_id;sensor_type;location;lat;lon;timestamp;P1;durP1;ratioP1;P2;durP2;ratioP2
17310;SDS011;8773;43.300;0.394;2022-09-03T00:01:50;2.65;;;2.08;;
17310;SDS011;8773;43.300;0.394;2022-09-03T00:04:26;2.25;;;2.00;;
17310;SDS011;8773;43.300;0.394;2022-09-03T00:07:02;2.13;;;2.00;;
17310;SDS011;8773;43.300;0.394;2022-09-03T00:09:35;2.50;;;2.30;;
17310;SDS011;8773;43.300;0.394;2022-09-03T00:12:10;2.33;;;2.00;;
17310;SDS011;8773;43.300;0.394;2022-09-03T00:14:45;2.95;;;2.20;;
17310;SDS011;8773;43.300;0.394;2022-09-03T00:17:17;2.28;;;1.95;;
17310;SDS011;8773;43.300;0.394;2022-09-03T00:19:51;3.70;;;2.30;;
17310;SDS011;8773;43.300;0.394;2022-09-03T00:22:23;2.22;;;2.03;;
17310;SDS011;8773;43.300;0.394;2022-09-03T00:24:55;2.38;;;2.08;;
17310;SDS011;8773;43.300;0.394;2022-09-03T00:27:27;2.05;;;1.90;;
17310;SDS011;8773;43.300;0.394;2022-09-03T00:29:59;2.17;;;2.08;;
17310;SDS011;8773;43.300;0.394;2022-09-03T00:32:33;3.55;;;1.95;;
17310;SDS011;8773;43.300;0.394;2022-09-03T00:35:08;3.13;;;2.25;;
17310;SDS011;8773;43.300;0.394;2022-09-03T00:37:42;3.58;;;2.22;;
17310;SDS011;8773;43.300;0.394;2022-09-03T00:40:17;2.33;;;2.10;;
17310;SDS011;8773;43.300;0.394;2022-09-03T00:43:00;3.97;;;2.35;;
17310;SDS011;8773;43.300;0.394;2022-09-03T00:45:38;2.85;;;2.38;;
17310;SDS011;8773;43.300;0.394;2022-09-03T00:48:14;4.00;;;2.00;;
17310;SDS011;8773;43.300;0.394;2022-09-03T00:51:01;2.95;;;2.10;;
17310;SDS011;8773;43.300;0.394;2022-09-03T00:53:39;2.03;;;1.92;;
17310;SDS011;8773;43.300;0.394;2022-09-03T00:56:16;3.65;;;2.10;;
17310;SDS011;8773;43.300;0.394;2022-09-03T00:58:55;2.55;;;2.10;;
17310;SDS011;8773;43.300;0.394;2022-09-03T01:01:35;2.53;;;2.10;;
17310;SDS011;8773;43.300;0.394;2022-09-03T01:04:19;2.85;;;2.17;;
17310;SDS011;8773;43.300;0.394;2022-09-03T01:06:56;2.33;;;2.22;;
17310;SDS011;8773;43.300;0.394;2022-09-03T01:09:35;1.80;;;1.70;;
17310;SDS011;8773;43.300;0.394;2022-09-03T01:12:16;2.13;;;2.03;;
17310;SDS011;8773;43.300;0.394;2022-09-03T01:14:55;2.85;;;1.98;;
17310;SDS011;8773;43.300;0.394;2022-09-03T01:17:35;3.28;;;2.38;;
17310;SDS011;8773;43.300;0.394;2022-09-03T01:20:13;3.05;;;2.20;;
17310;SDS011;8773;43.300;0.394;2022-09-03T01:23:02;1.92;;;1.83;;
17310;SDS011;8773;43.300;0.394;2022-09-03T01:25:58;2.25;;;2.05;;
17310;SDS011;8773;43.300;0.394;2022-09-03T01:28:46;2.10;;;1.90;;
17310;SDS011;8773;43.300;0.394;2022-09-03T01:31:28;3.15;;;2.40;;
17310;SDS011;8773;43.300;0.394;2022-09-03T01:34:05;2.45;;;2.05;;
17310;SDS011;8773;43.300;0.394;2022-09-03T01:36:43;1.92;;;1.80;;
17310;SDS011;8773;43.300;0.394;2022-09-03T01:39:19;2.83;;;2.20;;
17310;SDS011;8773;43.300;0.394;2022-09-03T01:41:56;2.10;;;1.90;;
17310;SDS011;8773;43.300;0.394;2022-09-03T01:44:52;2.83;;;2.15;;
17310;SDS011;8773;43.300;0.394;2022-09-03T01:47:58;3.28;;;2.05;;
17310;SDS011;8773;43.300;0.394;2022-09-03T01:50:40;3.30;;;2.33;;
17310;SDS011;8773;43.300;0.394;2022-09-03T01:53:16;2.20;;;2.10;;
17310;SDS011;8773;43.300;0.394;2022-09-03T01:55:58;3.38;;;2.08;;
17310;SDS011;8773;43.300;0.394;2022-09-03T01:58:35;2.30;;;2.10;;
17310;SDS011;8773;43.300;0.394;2022-09-03T02:01:11;2.38;;;2.28;;
17310;SDS011;8773;43.300;0.394;2022-09-03T02:03:43;2.85;;;2.40;;
17310;SDS011;8773;43.300;0.394;2022-09-03T02:06:13;4.63;;;2.00;;
17310;SDS011;8773;43.300;0.394;2022-09-03T02:08:44;2.20;;;2.10;;
17310;SDS011;8773;43.300;0.394;2022-09-03T02:11:12;2.42;;;1.85;;
17310;SDS011;8773;43.300;0.394;2022-09-03T02:13:41;2.13;;;1.92;;
17310;SDS011;8773;43.300;0.394;2022-09-03T02:16:14;1.90;;;1.80;;
17310;SDS011;8773;43.300;0.394;2022-09-03T02:18:44;2.22;;;1.98;;
17310;SDS011;8773;43.300;0.394;2022-09-03T02:21:16;2.40;;;2.22;;
17310;SDS011;8773;43.300;0.394;2022-09-03T02:23:46;2.28;;;2.08;;
17310;SDS011;8773;43.300;0.394;2022-09-03T02:26:17;1.92;;;1.80;;
17310;SDS011;8773;43.300;0.394;2022-09-03T02:28:48;2.58;;;1.98;;
17310;SDS011;8773;43.300;0.394;2022-09-03T02:31:18;3.05;;;2.08;;
17310;SDS011;8773;43.300;0.394;2022-09-03T02:33:47;1.90;;;1.67;;
17310;SDS011;8773;43.300;0.394;2022-09-03T02:36:17;2.47;;;2.28;;
17310;SDS011;8773;43.300;0.394;2022-09-03T02:38:47;2.22;;;1.98;;
17310;SDS011;8773;43.300;0.394;2022-09-03T02:41:15;3.30;;;2.65;;
17310;SDS011;8773;43.300;0.394;2022-09-03T02:43:44;2.25;;;2.03;;
17310;SDS011;8773;43.300;0.394;2022-09-03T02:46:17;2.42;;;2.25;;
17310;SDS011;8773;43.300;0.394;2022-09-03T02:48:52;4.35;;;2.90;;
17310;SDS011;8773;43.300;0.394;2022-09-03T02:51:21;3.03;;;2.30;;
17310;SDS011;8773;43.300;0.394;2022-09-03T02:53:49;2.95;;;2.53;;
17310;SDS011;8773;43.300;0.394;2022-09-03T02:56:17;2.28;;;2.08;;
17310;SDS011;8773;43.300;0.394;2022-09-03T02:58:45;3.35;;;2.50;;
17310;SDS011;8773;43.300;0.394;2022-09-03T03:01:14;3.13;;;2.83;;
17310;SDS011;8773;43.300;0.394;2022-09-03T03:03:51;2.92;;;2.60;;
17310;SDS011;8773;43.300;0.394;2022-09-03T03:06:20;3.15;;;2.38;;
17310;SDS011;8773;43.300;0.394;2022-09-03T03:08:48;2.67;;;2.38;;
17310;SDS011;8773;43.300;0.394;2022-09-03T03:11:17;2.80;;;2.60;;
17310;SDS011;8773;43.300;0.394;2022-09-03T03:13:45;2.40;;;2.20;;
17310;SDS011;8773;43.300;0.394;2022-09-03T03:16:14;2.55;;;2.35;;
17310;SDS011;8773;43.300;0.394;2022-09-03T03:18:43;3.92;;;2.75;;
17310;SDS011;8773;43.300;0.394;2022-09-03T03:21:14;3.13;;;2.55;;
17310;SDS011;8773;43.300;0.394;2022-09-03T03:23:43;3.13;;;2.50;;
17310;SDS011;8773;43.300;0.394;2022-09-03T03:26:13;2.92;;;2.63;;
17310;SDS011;8773;43.300;0.394;2022-09-03T03:28:44;2.75;;;2.40;;
17310;SDS011;8773;43.300;0.394;2022-09-03T03:31:14;2.90;;;2.70;;
17310;SDS011;8773;43.300;0.394;2022-09-03T03:33:48;4.15;;;2.90;;
17310;SDS011;8773;43.300;0.394;2022-09-03T03:36:19;3.58;;;2.67;;
17310;SDS011;8773;43.300;0.394;2022-09-03T03:38:52;2.70;;;2.50;;
17310;SDS011;8773;43.300;0.394;2022-09-03T03:41:20;3.03;;;2.40;;
17310;SDS011;8773;43.300;0.394;2022-09-03T03:43:51;2.70;;;2.40;;
17310;SDS011;8773;43.300;0.394;2022-09-03T03:46:20;2.67;;;2.47;;
17310;SDS011;8773;43.300;0.394;2022-09-03T03:48:49;2.58;;;2.38;;
17310;SDS011;8773;43.300;0.394;2022-09-03T03:51:18;2.65;;;2.45;;
17310;SDS011;8773;43.300;0.394;2022-09-03T03:53:47;2.83;;;2.70;;
17310;SDS011;8773;43.300;0.394;2022-09-03T03:56:15;3.15;;;2.83;;
17310;SDS011;8773;43.300;0.394;2022-09-03T03:58:43;2.90;;;2.50;;
17310;SDS011;8773;43.300;0.394;2022-09-03T04:01:14;2.58;;;2.47;;
17310;SDS011;8773;43.300;0.394;2022-09-03T04:03:45;6.20;;;3.15;;
17310;SDS011;8773;43.300;0.394;2022-09-03T04:06:14;2.75;;;2.65;;
17310;SDS011;8773;43.300;0.394;2022-09-03T04:08:45;3.67;;;3.10;;
17310;SDS011;8773;43.300;0.394;2022-09-03T04:11:16;2.70;;;2.50;;
17310;SDS011;8773;43.300;0.394;2022-09-03T04:13:45;3.25;;;2.92;;
17310;SDS011;8773;43.300;0.394;2022-09-03T04:16:15;3.38;;;2.97;;
17310;SDS011;8773;43.300;0.394;2022-09-03T04:18:44;2.83;;;2.63;;
17310;SDS011;8773;43.300;0.394;2022-09-03T04:21:15;3.22;;;2.90;;
17310;SDS011;8773;43.300;0.394;2022-09-03T04:23:47;3.50;;;3.20;;
17310;SDS011;8773;43.300;0.394;2022-09-03T04:26:16;3.17;;;2.95;;
17310;SDS011;8773;43.300;0.394;2022-09-03T04:28:46;3.10;;;2.90;;
17310;SDS011;8773;43.300;0.394;2022-09-03T04:31:15;2.90;;;2.70;;
17310;SDS011;8773;43.300;0.394;2022-09-03T04:33:44;3.53;;;3.17;;
17310;SDS011;8773;43.300;0.394;2022-09-03T04:36:13;3.13;;;3.03;;
17310;SDS011;8773;43.300;0.394;2022-09-03T04:38:43;3.72;;;3.38;;
17310;SDS011;8773;43.300;0.394;2022-09-03T04:41:15;3.45;;;3.28;;
17310;SDS011;8773;43.300;0.394;2022-09-03T04:43:44;3.20;;;2.90;;
17310;SDS011;8773;43.300;0.394;2022-09-03T04:46:17;3.75;;;3.00;;
17310;SDS011;8773;43.300;0.394;2022-09-03T04:48:47;3.15;;;2.95;;
17310;SDS011;8773;43.300;0.394;2022-09-03T04:51:17;3.22;;;2.95;;
17310;SDS011;8773;43.300;0.394;2022-09-03T04:53:52;3.05;;;2.85;;
17310;SDS011;8773;43.300;0.394;2022-09-03T04:56:42;2.60;;;2.40;;
17310;SDS011;8773;43.300;0.394;2022-09-03T04:59:10;3.42;;;3.22;;
17310;SDS011;8773;43.300;0.394;2022-09-03T05:01:39;4.82;;;3.08;;
17310;SDS011;8773;43.300;0.394;2022-09-03T05:04:07;3.67;;;2.90;;
17310;SDS011;8773;43.300;0.394;2022-09-03T05:06:35;3.47;;;2.88;;
17310;SDS011;8773;43.300;0.394;2022-09-03T05:09:05;3.08;;;2.80;;
17310;SDS011;8773;43.300;0.394;2022-09-03T05:11:33;3.03;;;2.80;;
17310;SDS011;8773;43.300;0.394;2022-09-03T05:14:01;3.05;;;2.85;;
17310;SDS011;8773;43.300;0.394;2022-09-03T05:16:31;3.20;;;2.90;;
17310;SDS011;8773;43.300;0.394;2022-09-03T05:18:59;3.45;;;2.78;;
17310;SDS011;8773;43.300;0.394;2022-09-03T05:21:31;3.20;;;2.90;;
17310;SDS011;8773;43.300;0.394;2022-09-03T05:24:01;3.00;;;2.72;;
17310;SDS011;8773;43.300;0.394;2022-09-03T05:26:34;3.83;;;3.03;;
17310;SDS011;8773;43.300;0.394;2022-09-03T05:29:04;3.45;;;2.92;;
17310;SDS011;8773;43.300;0.394;2022-09-03T05:31:35;3.38;;;3.17;;
17310;SDS011;8773;43.300;0.394;2022-09-03T05:34:04;3.03;;;2.83;;
17310;SDS011;8773;43.300;0.394;2022-09-03T05:36:42;2.90;;;2.70;;
17310;SDS011;8773;43.300;0.394;2022-09-03T05:39:12;2.80;;;2.60;;
17310;SDS011;8773;43.300;0.394;2022-09-03T05:41:41;5.10;;;2.80;;
17310;SDS011;8773;43.300;0.394;2022-09-03T05:44:11;2.92;;;2.80;;
17310;SDS011;8773;43.300;0.394;2022-09-03T05:46:41;2.78;;;2.58;;
17310;SDS011;8773;43.300;0.394;2022-09-03T05:49:09;3.08;;;2.88;;
17310;SDS011;8773;43.300;0.394;2022-09-03T05:51:37;2.72;;;2.53;;
17310;SDS011;8773;43.300;0.394;2022-09-03T05:54:05;3.10;;;2.60;;
17310;SDS011;8773;43.300;0.394;2022-09-03T05:56:35;2.83;;;2.63;;
17310;SDS011;8773;43.300;0.394;2022-09-03T05:59:08;3.08;;;2.75;;
17310;SDS011;8773;43.300;0.394;2022-09-03T06:01:37;2.97;;;2.70;;
17310;SDS011;8773;43.300;0.394;2022-09-03T06:04:13;2.65;;;2.53;;
17310;SDS011;8773;43.300;0.394;2022-09-03T06:06:42;3.20;;;2.92;;
17310;SDS011;8773;43.300;0.394;2022-09-03T06:09:12;3.05;;;2.60;;
17310;SDS011;8773;43.300;0.394;2022-09-03T06:11:43;3.05;;;2.78;;
17310;SDS011;8773;43.300;0.394;2022-09-03T06:14:14;2.85;;;2.53;;
17310;SDS011;8773;43.300;0.394;2022-09-03T06:16:43;2.83;;;2.70;;
17310;SDS011;8773;43.300;0.394;2022-09-03T06:19:15;2.90;;;2.70;;
17310;SDS011;8773;43.300;0.394;2022-09-03T06:21:43;3.10;;;2.80;;
17310;SDS011;8773;43.300;0.394;2022-09-03T06:24:14;3.33;;;3.03;;
17310;SDS011;8773;43.300;0.394;2022-09-03T06:26:44;3.15;;;2.95;;
17310;SDS011;8773;43.300;0.394;2022-09-03T06:29:14;3.70;;;2.65;;
17310;SDS011;8773;43.300;0.394;2022-09-03T06:31:46;3.17;;;2.88;;
17310;SDS011;8773;43.300;0.394;2022-09-03T06:34:16;2.88;;;2.78;;
17310;SDS011;8773;43.300;0.394;2022-09-03T06:36:46;2.50;;;2.40;;
17310;SDS011;8773;43.300;0.394;2022-09-03T06:39:15;3.15;;;2.55;;
17310;SDS011;8773;43.300;0.394;2022-09-03T06:41:44;3.08;;;2.67;;
17310;SDS011;8773;43.300;0.394;2022-09-03T06:44:18;2.83;;;2.63;;
17310;SDS011;8773;43.300;0.394;2022-09-03T06:46:46;2.60;;;2.40;;
17310;SDS011;8773;43.300;0.394;2022-09-03T06:49:19;3.05;;;2.85;;
17310;SDS011;8773;43.300;0.394;2022-09-03T06:51:47;3.00;;;2.72;;
17310;SDS011;8773;43.300;0.394;2022-09-03T06:54:15;2.78;;;2.63;;
17310;SDS011;8773;43.300;0.394;2022-09-03T06:56:43;3.60;;;2.60;;
17310;SDS011;8773;43.300;0.394;2022-09-03T06:59:12;2.80;;;2.60;;
17310;SDS011;8773;43.300;0.394;2022-09-03T07:01:42;2.85;;;2.65;;
17310;SDS011;8773;43.300;0.394;2022-09-03T07:04:12;2.75;;;2.55;;
17310;SDS011;8773;43.300;0.394;2022-09-03T07:06:46;4.90;;;2.95;;
17310;SDS011;8773;43.300;0.394;2022-09-03T07:09:14;2.90;;;2.65;;
17310;SDS011;8773;43.300;0.394;2022-09-03T07:11:47;2.92;;;2.58;;
17310;SDS011;8773;43.300;0.394;2022-09-03T07:14:15;2.45;;;2.35;;
17310;SDS011;8773;43.300;0.394;2022-09-03T07:16:46;2.30;;;2.10;;
17310;SDS011;8773;43.300;0.394;2022-09-03T07:19:15;3.00;;;2.22;;
17310;SDS011;8773;43.300;0.394;2022-09-03T07:21:43;2.38;;;2.17;;
17310;SDS011;8773;43.300;0.394;2022-09-03T07:24:16;2.45;;;2.35;;
17310;SDS011;8773;43.300;0.394;2022-09-03T07:26:44;3.80;;;2.58;;
17310;SDS011;8773;43.300;0.394;2022-09-03T07:29:14;2.10;;;2.00;;
17310;SDS011;8773;43.300;0.394;2022-09-03T07:31:48;2.25;;;2.15;;
17310;SDS011;8773;43.300;0.394;2022-09-03T07:34:18;2.58;;;2.20;;
17310;SDS011;8773;43.300;0.394;2022-09-03T07:36:51;2.70;;;2.50;;
17310;SDS011;8773;43.300;0.394;2022-09-03T07:39:19;3.08;;;2.33;;
17310;SDS011;8773;43.300;0.394;2022-09-03T07:41:47;2.53;;;1.90;;
17310;SDS011;8773;43.300;0.394;2022-09-03T07:44:16;2.42;;;2.00;;
17310;SDS011;8773;43.300;0.394;2022-09-03T07:46:47;1.92;;;1.83;;
17310;SDS011;8773;43.300;0.394;2022-09-03T07:49:17;2.80;;;2.08;;
17310;SDS011;8773;43.300;0.394;2022-09-03T07:51:47;1.92;;;1.83;;
17310;SDS011;8773;43.300;0.394;2022-09-03T07:54:18;1.90;;;1.80;;
17310;SDS011;8773;43.300;0.394;2022-09-03T07:56:48;1.92;;;1.83;;
17310;SDS011;8773;43.300;0.394;2022-09-03T07:59:16;2.17;;;1.95;;
17310;SDS011;8773;43.300;0.394;2022-09-03T08:01:45;5.28;;;2.15;;
17310;SDS011;8773;43.300;0.394;2022-09-03T08:04:16;2.70;;;2.15;;
17310;SDS011;8773;43.300;0.394;2022-09-03T08:06:44;2.88;;;2.13;;
17310;SDS011;8773;43.300;0.394;2022-09-03T08:09:13;2.53;;;2.22;;
17310;SDS011;8773;43.300;0.394;2022-09-03T08:11:42;2.25;;;2.05;;
17310;SDS011;8773;43.300;0.394;2022-09-03T08:14:10;3.63;;;1.98;;
17310;SDS011;8773;43.300;0.394;2022-09-03T08:16:41;1.83;;;1.73;;
17310;SDS011;8773;43.300;0.394;2022-09-03T08:19:12;1.65;;;1.60;;
17310;SDS011;8773;43.300;0.394;2022-09-03T08:21:41;3.60;;;2.03;;
17310;SDS011;8773;43.300;0.394;2022-09-03T08:24:10;2.10;;;1.92;;
17310;SDS011;8773;43.300;0.394;2022-09-03T08:26:39;3.38;;;2.00;;
17310;SDS011;8773;43.300;0.394;2022-09-03T08:29:15;3.47;;;2.20;;
17310;SDS011;8773;43.300;0.394;2022-09-03T08:31:44;1.80;;;1.70;;
17310;SDS011;8773;43.300;0.394;2022-09-03T08:34:13;1.88;;;1.70;;
17310;SDS011;8773;43.300;0.394;2022-09-03T08:36:43;2.00;;;1.70;;
17310;SDS011;8773;43.300;0.394;2022-09-03T08:39:13;3.25;;;1.90;;
17310;SDS011;8773;43.300;0.394;2022-09-03T08:41:47;2.10;;;1.90;;
17310;SDS011;8773;43.300;0.394;2022-09-03T08:44:35;2.13;;;1.70;;
17310;SDS011;8773;43.300;0.394;2022-09-03T08:47:09;1.80;;;1.70;;
17310;SDS011;8773;43.300;0.394;2022-09-03T08:49:42;2.33;;;1.70;;
17310;SDS011;8773;43.300;0.394;2022-09-03T08:52:18;1.70;;;1.60;;
17310;SDS011;8773;43.300;0.394;2022-09-03T08:54:54;1.83;;;1.73;;
17310;SDS011;8773;43.300;0.394;2022-09-03T08:57:30;2.65;;;1.70;;
17310;SDS011;8773;43.300;0.394;2022-09-03T09:00:03;2.15;;;1.73;;
17310;SDS011;8773;43.300;0.394;2022-09-03T09:02:34;1.70;;;1.60;;
17310;SDS011;8773;43.300;0.394;2022-09-03T09:05:13;1.95;;;1.63;;
17310;SDS011;8773;43.300;0.394;2022-09-03T09:07:48;1.70;;;1.58;;
17310;SDS011;8773;43.300;0.394;2022-09-03T09:10:21;1.42;;;1.33;;
17310;SDS011;8773;43.300;0.394;2022-09-03T09:12:57;3.35;;;1.80;;
17310;SDS011;8773;43.300;0.394;2022-09-03T09:15:38;1.98;;;1.80;;
17310;SDS011;8773;43.300;0.394;2022-09-03T09:18:14;3.45;;;1.85;;
17310;SDS011;8773;43.300;0.394;2022-09-03T09:20:52;1.83;;;1.73;;
17310;SDS011;8773;43.300;0.394;2022-09-03T09:23:25;1.63;;;1.52;;
17310;SDS011;8773;43.300;0.394;2022-09-03T09:25:58;2.08;;;1.60;;
17310;SDS011;8773;43.300;0.394;2022-09-03T09:28:28;2.30;;;1.70;;
17310;SDS011;8773;43.300;0.394;2022-09-03T09:31:01;1.90;;;1.80;;
17310;SDS011;8773;43.300;0.394;2022-09-03T09:33:31;1.70;;;1.60;;
17310;SDS011;8773;43.300;0.394;2022-09-03T09:36:02;1.80;;;1.70;;
17310;SDS011;8773;43.300;0.394;2022-09-03T09:38:36;1.83;;;1.58;;
17310;SDS011;8773;43.300;0.394;2022-09-03T09:41:09;1.52;;;1.42;;
17310;SDS011;8773;43.300;0.394;2022-09-03T09:43:39;1.77;;;1.67;;
17310;SDS011;8773;43.300;0.394;2022-09-03T09:46:08;1.52;;;1.40;;
17310;SDS011;8773;43.300;0.394;2022-09-03T09:48:44;2.40;;;2.00;;
17310;SDS011;8773;43.300;0.394;2022-09-03T09:51:37;3.65;;;1.88;;
17310;SDS011;8773;43.300;0.394;2022-09-03T09:54:11;2.05;;;1.73;;
17310;SDS011;8773;43.300;0.394;2022-09-03T09:56:44;1.92;;;1.55;;
17310;SDS011;8773;43.300;0.394;2022-09-03T09:59:13;1.52;;;1.45;;
17310;SDS011;8773;43.300;0.394;2022-09-03T10:01:42;1.90;;;1.80;;
17310;SDS011;8773;43.300;0.394;2022-09-03T10:04:12;1.38;;;1.27;;
17310;SDS011;8773;43.300;0.394;2022-09-03T10:06:58;1.60;;;1.50;;
17310;SDS011;8773;43.300;0.394;2022-09-03T10:09:32;1.90;;;1.80;;
17310;SDS011;8773;43.300;0.394;2022-09-03T10:12:07;2.00;;;1.88;;
17310;SDS011;8773;43.300;0.394;2022-09-03T10:14:41;3.50;;;1.80;;
17310;SDS011;8773;43.300;0.394;2022-09-03T10:17:15;1.77;;;1.60;;
17310;SDS011;8773;43.300;0.394;2022-09-03T10:20:03;2.08;;;1.88;;
17310;SDS011;8773;43.300;0.394;2022-09-03T10:22:58;3.05;;;1.60;;
17310;SDS011;8773;43.300;0.394;2022-09-03T10:25:33;2.78;;;1.80;;
17310;SDS011;8773;43.300;0.394;2022-09-03T10:28:07;1.60;;;1.50;;
17310;SDS011;8773;43.300;0.394;2022-09-03T10:30:51;2.25;;;1.75;;
17310;SDS011;8773;43.300;0.394;2022-09-03T10:33:29;3.78;;;2.00;;
17310;SDS011;8773;43.300;0.394;2022-09-03T10:36:06;2.35;;;1.70;;
17310;SDS011;8773;43.300;0.394;2022-09-03T10:38:42;1.77;;;1.67;;
17310;SDS011;8773;43.300;0.394;2022-09-03T10:41:19;1.70;;;1.60;;
17310;SDS011;8773;43.300;0.394;2022-09-03T10:47:03;1.88;;;1.58;;
17310;SDS011;8773;43.300;0.394;2022-09-03T10:49:49;2.03;;;1.88;;
17310;SDS011;8773;43.300;0.394;2022-09-03T10:52:37;1.83;;;1.70;;
17310;SDS011;8773;43.300;0.394;2022-09-03T10:55:18;2.45;;;1.75;;
17310;SDS011;8773;43.300;0.394;2022-09-03T10:58:00;1.67;;;1.58;;
17310;SDS011;8773;43.300;0.394;2022-09-03T11:00:40;2.80;;;2.13;;
17310;SDS011;8773;43.300;0.394;2022-09-03T11:06:11;1.98;;;1.50;;
17310;SDS011;8773;43.300;0.394;2022-09-03T11:08:45;3.58;;;1.67;;
17310;SDS011;8773;43.300;0.394;2022-09-03T11:11:22;2.25;;;1.55;;
17310;SDS011;8773;43.300;0.394;2022-09-03T11:13:55;2.65;;;1.40;;
17310;SDS011;8773;43.300;0.394;2022-09-03T11:16:30;2.03;;;1.45;;
17310;SDS011;8773;43.300;0.394;2022-09-03T11:19:01;1.80;;;1.70;;
17310;SDS011;8773;43.300;0.394;2022-09-03T11:21:32;1.48;;;1.38;;
17310;SDS011;8773;43.300;0.394;2022-09-03T11:24:04;1.65;;;1.55;;
17310;SDS011;8773;43.300;0.394;2022-09-03T11:26:41;1.98;;;1.67;;
17310;SDS011;8773;43.300;0.394;2022-09-03T11:29:14;2.05;;;1.52;;
17310;SDS011;8773;43.300;0.394;2022-09-03T11:31:52;1.98;;;1.42;;
17310;SDS011;8773;43.300;0.394;2022-09-03T11:34:26;2.45;;;1.65;;
17310;SDS011;8773;43.300;0.394;2022-09-03T11:37:15;1.50;;;1.40;;
17310;SDS011;8773;43.300;0.394;2022-09-03T11:39:51;1.90;;;1.80;;
17310;SDS011;8773;43.300;0.394;2022-09-03T11:42:30;2.47;;;1.60;;
17310;SDS011;8773;43.300;0.394;2022-09-03T11:45:12;1.73;;;1.45;;
17310;SDS011;8773;43.300;0.394;2022-09-03T11:47:48;3.42;;;1.65;;
17310;SDS011;8773;43.300;0.394;2022-09-03T11:50:19;2.30;;;2.10;;
17310;SDS011;8773;43.300;0.394;2022-09-03T11:52:49;1.38;;;1.27;;
17310;SDS011;8773;43.300;0.394;2022-09-03T11:55:26;1.85;;;1.42;;
17310;SDS011;8773;43.300;0.394;2022-09-03T11:58:11;1.83;;;1.60;;
17310;SDS011;8773;43.300;0.394;2022-09-03T12:00:46;1.70;;;1.60;;
17310;SDS011;8773;43.300;0.394;2022-09-03T12:03:20;2.78;;;2.00;;
17310;SDS011;8773;43.300;0.394;2022-09-03T12:06:01;1.67;;;1.33;;
17310;SDS011;8773;43.300;0.394;2022-09-03T12:08:44;2.10;;;1.90;;
17310;SDS011;8773;43.300;0.394;2022-09-03T12:11:43;1.77;;;1.65;;
17310;SDS011;8773;43.300;0.394;2022-09-03T12:14:24;1.20;;;1.20;;
17310;SDS011;8773;43.300;0.394;2022-09-03T12:17:11;2.88;;;1.50;;
17310;SDS011;8773;43.300;0.394;2022-09-03T12:19:51;1.80;;;1.48;;
17310;SDS011;8773;43.300;0.394;2022-09-03T12:22:21;1.40;;;1.30;;
17310;SDS011;8773;43.300;0.394;2022-09-03T12:24:51;1.63;;;1.52;;
17310;SDS011;8773;43.300;0.394;2022-09-03T12:27:19;1.45;;;1.35;;
17310;SDS011;8773;43.300;0.394;2022-09-03T12:29:53;2.05;;;1.30;;
17310;SDS011;8773;43.300;0.394;2022-09-03T12:32:26;1.65;;;1.40;;
17310;SDS011;8773;43.300;0.394;2022-09-03T12:35:08;1.50;;;1.40;;
17310;SDS011;8773;43.300;0.394;2022-09-03T12:37:37;1.50;;;1.40;;
17310;SDS011;8773;43.300;0.394;2022-09-03T12:40:26;1.58;;;1.38;;
17310;SDS011;8773;43.300;0.394;2022-09-03T12:43:10;3.22;;;1.33;;
17310;SDS011;8773;43.300;0.394;2022-09-03T12:46:00;2.42;;;2.22;;
17310;SDS011;8773;43.300;0.394;2022-09-03T12:48:36;1.63;;;1.52;;
17310;SDS011;8773;43.300;0.394;2022-09-03T12:51:09;1.50;;;1.40;;
17310;SDS011;8773;43.300;0.394;2022-09-03T12:53:57;1.88;;;1.40;;
17310;SDS011;8773;43.300;0.394;2022-09-03T12:56:26;1.63;;;1.48;;
17310;SDS011;8773;43.300;0.394;2022-09-03T12:58:58;1.65;;;1.55;;
17310;SDS011;8773;43.300;0.394;2022-09-03T13:01:32;1.60;;;1.50;;
17310;SDS011;8773;43.300;0.394;2022-09-03T13:04:07;1.70;;;1.60;;
17310;SDS011;8773;43.300;0.394;2022-09-03T13:06:42;1.90;;;1.40;;
17310;SDS011;8773;43.300;0.394;2022-09-03T13:09:18;1.70;;;1.52;;
17310;SDS011;8773;43.300;0.394;2022-09-03T13:11:48;1.77;;;1.50;;
17310;SDS011;8773;43.300;0.394;2022-09-03T13:14:17;1.50;;;1.40;;
17310;SDS011;8773;43.300;0.394;2022-09-03T13:16:52;2.03;;;1.30;;
17310;SDS011;8773;43.300;0.394;2022-09-03T13:19:42;1.52;;;1.42;;
17310;SDS011;8773;43.300;0.394;2022-09-03T13:22:20;1.50;;;1.40;;
17310;SDS011;8773;43.300;0.394;2022-09-03T13:25:01;2.10;;;1.60;;
17310;SDS011;8773;43.300;0.394;2022-09-03T13:27:41;1.50;;;1.40;;
17310;SDS011;8773;43.300;0.394;2022-09-03T13:30:12;1.60;;;1.48;;
17310;SDS011;8773;43.300;0.394;2022-09-03T13:32:46;2.10;;;1.70;;
17310;SDS011;8773;43.300;0.394;2022-09-03T13:35:29;1.95;;;1.35;;
17310;SDS011;8773;43.300;0.394;2022-09-03T13:38:08;1.58;;;1.48;;
17310;SDS011;8773;43.300;0.394;2022-09-03T13:40:51;1.73;;;1.52;;
17310;SDS011;8773;43.300;0.394;2022-09-03T13:43:29;1.33;;;1.20;;
17310;SDS011;8773;43.300;0.394;2022-09-03T13:46:02;1.58;;;1.42;;
17310;SDS011;8773;43.300;0.394;2022-09-03T13:48:37;1.88;;;1.42;;
17310;SDS011;8773;43.300;0.394;2022-09-03T13:51:25;2.45;;;1.50;;
17310;SDS011;8773;43.300;0.394;2022-09-03T13:53:58;1.70;;;1.58;;
17310;SDS011;8773;43.300;0.394;2022-09-03T13:56:35;1.50;;;1.40;;
17310;SDS011;8773;43.300;0.394;2022-09-03T13:59:18;1.98;;;1.60;;
17310;SDS011;8773;43.300;0.394;2022-09-03T14:01:59;2.38;;;1.50;;
17310;SDS011;8773;43.300;0.394;2022-09-03T14:04:41;1.92;;;1.58;;
17310;SDS011;8773;43.300;0.394;2022-09-03T14:07:19;1.75;;;1.50;;
17310;SDS011;8773;43.300;0.394;2022-09-03T14:09:53;1.45;;;1.38;;
17310;SDS011;8773;43.300;0.394;2022-09-03T14:12:36;2.85;;;1.55;;
17310;SDS011;8773;43.300;0.394;2022-09-03T14:15:10;2.67;;;1.65;;
17310;SDS011;8773;43.300;0.394;2022-09-03T14:17:46;1.70;;;1.60;;
17310;SDS011;8773;43.300;0.394;2022-09-03T14:20:21;1.25;;;1.25;;
17310;SDS011;8773;43.300;0.394;2022-09-03T14:22:52;1.50;;;1.40;;
17310;SDS011;8773;43.300;0.394;2022-09-03T14:25:26;1.35;;;1.35;;
17310;SDS011;8773;43.300;0.394;2022-09-03T14:27:54;2.67;;;1.55;;
17310;SDS011;8773;43.300;0.394;2022-09-03T14:30:41;2.40;;;1.75;;
17310;SDS011;8773;43.300;0.394;2022-09-03T14:33:23;1.88;;;1.58;;
17310;SDS011;8773;43.300;0.394;2022-09-03T14:36:00;1.55;;;1.35;;
17310;SDS011;8773;43.300;0.394;2022-09-03T14:38:45;2.45;;;1.50;;
17310;SDS011;8773;43.300;0.394;2022-09-03T14:41:31;1.50;;;1.40;;
17310;SDS011;8773;43.300;0.394;2022-09-03T14:44:22;1.73;;;1.50;;
17310;SDS011;8773;43.300;0.394;2022-09-03T14:47:06;1.50;;;1.40;;
17310;SDS011;8773;43.300;0.394;2022-09-03T14:49:57;1.70;;;1.60;;
17310;SDS011;8773;43.300;0.394;2022-09-03T14:52:47;1.52;;;1.52;;
17310;SDS011;8773;43.300;0.394;2022-09-03T14:55:28;3.42;;;1.50;;
17310;SDS011;8773;43.300;0.394;2022-09-03T14:58:15;1.85;;;1.75;;
17310;SDS011;8773;43.300;0.394;2022-09-03T15:00:52;1.90;;;1.73;;
17310;SDS011;8773;43.300;0.394;2022-09-03T15:03:30;1.73;;;1.55;;
17310;SDS011;8773;43.300;0.394;2022-09-03T15:06:09;2.33;;;1.70;;
17310;SDS011;8773;43.300;0.394;2022-09-03T15:09:04;1.83;;;1.70;;
17310;SDS011;8773;43.300;0.394;2022-09-03T15:11:46;2.10;;;2.00;;
17310;SDS011;8773;43.300;0.394;2022-09-03T15:14:18;2.15;;;1.90;;
17310;SDS011;8773;43.300;0.394;2022-09-03T15:16:55;2.00;;;1.90;;
17310;SDS011;8773;43.300;0.394;2022-09-03T15:22:25;1.58;;;1.48;;
17310;SDS011;8773;43.300;0.394;2022-09-03T15:25:18;2.58;;;1.70;;
17310;SDS011;8773;43.300;0.394;2022-09-03T15:27:57;2.97;;;1.75;;
17310;SDS011;8773;43.300;0.394;2022-09-03T15:30:34;1.67;;;1.58;;
17310;SDS011;8773;43.300;0.394;2022-09-03T15:33:12;1.70;;;1.60;;
17310;SDS011;8773;43.300;0.394;2022-09-03T15:35:54;3.85;;;1.77;;
17310;SDS011;8773;43.300;0.394;2022-09-03T15:38:36;1.80;;;1.70;;
17310;SDS011;8773;43.300;0.394;2022-09-03T15:41:16;1.83;;;1.65;;
17310;SDS011;8773;43.300;0.394;2022-09-03T15:43:51;3.03;;;1.90;;
17310;SDS011;8773;43.300;0.394;2022-09-03T15:49:22;2.00;;;1.55;;
17310;SDS011;8773;43.300;0.394;2022-09-03T15:52:01;1.95;;;1.75;;
17310;SDS011;8773;43.300;0.394;2022-09-03T15:54:38;3.20;;;1.77;;
17310;SDS011;8773;43.300;0.394;2022-09-03T15:57:16;1.98;;;1.83;;